createdAt,value
2019-05-23T00:01:20.165Z,13.81
2019-05-23T00:04:58.194Z,13.50
2019-05-23T00:08:23.560Z,13.56
2019-05-23T00:11:29.603Z,13.49
2019-05-23T00:14:56.762Z,13.49
2019-05-23T00:18:01.463Z,13.41
2019-05-23T00:21:05.009Z,13.38
2019-05-23T00:24:08.426Z,13.16
2019-05-23T00:27:12.087Z,13.15
2019-05-23T00:30:25.243Z,13.17
2019-05-23T00:33:29.759Z,13.08
2019-05-23T00:36:34.918Z,13.09
2019-05-23T00:39:39.827Z,13.28
2019-05-23T00:42:44.587Z,13.47
2019-05-23T00:45:48.208Z,13.48
2019-05-23T00:48:51.932Z,13.81
2019-05-23T00:51:55.884Z,13.33
2019-05-23T00:54:59.124Z,13.08
2019-05-23T00:58:02.264Z,13.11
2019-05-23T01:01:06.284Z,12.64
2019-05-23T01:04:10.251Z,12.58
2019-05-23T01:07:16.135Z,12.55
2019-05-23T01:10:20.058Z,12.58
2019-05-23T01:13:24.021Z,12.69
2019-05-23T01:16:29.521Z,12.95
2019-05-23T01:19:33.607Z,13.44
2019-05-23T01:22:36.686Z,13.27
2019-05-23T01:25:40.710Z,13.16
2019-05-23T01:28:44.616Z,12.85
2019-05-23T01:31:51.715Z,12.65
2019-05-23T01:34:56.342Z,12.52
2019-05-23T01:38:04.157Z,12.46
2019-05-23T01:41:06.395Z,12.55
2019-05-23T01:44:11.409Z,12.58
2019-05-23T01:47:15.072Z,12.57
2019-05-23T01:50:24.562Z,12.50
2019-05-23T01:53:28.885Z,12.45
2019-05-23T01:56:32.208Z,12.35
2019-05-23T01:59:35.853Z,12.59
2019-05-23T02:02:39.211Z,12.67
2019-05-23T02:05:42.645Z,12.72
2019-05-23T02:08:45.886Z,12.63
2019-05-23T02:11:50.069Z,12.53
2019-05-23T02:14:54.647Z,12.46
2019-05-23T02:17:57.684Z,12.34
2019-05-23T02:21:00.984Z,12.13
2019-05-23T02:24:06.405Z,12.27
2019-05-23T02:27:11.339Z,12.28
2019-05-23T02:30:33.227Z,12.37
2019-05-23T02:33:25.092Z,12.29
2019-05-23T02:36:31.931Z,12.22
2019-05-23T02:39:48.997Z,12.20
2019-05-23T02:42:57.150Z,12.30
2019-05-23T02:46:06.644Z,12.35
2019-05-23T02:49:11.004Z,12.07
2019-05-23T02:52:53.524Z,12.06
2019-05-23T02:56:02.761Z,12.08
2019-05-23T02:59:45.704Z,12.11
2019-05-23T03:02:53.892Z,12.09
2019-05-23T03:05:59.721Z,12.04
2019-05-23T03:09:03.910Z,12.07
2019-05-23T03:12:10.691Z,11.90
2019-05-23T03:15:16.452Z,11.87
2019-05-23T03:18:21.435Z,11.91
2019-05-23T03:21:26.600Z,12.13
2019-05-23T03:24:30.700Z,12.13
2019-05-23T03:27:42.471Z,12.01
2019-05-23T03:30:48.804Z,11.89
2019-05-23T03:33:52.561Z,11.78
2019-05-23T03:36:56.329Z,11.97
2019-05-23T03:39:59.568Z,12.06
2019-05-23T03:43:04.491Z,11.97
2019-05-23T03:46:10.577Z,11.97
2019-05-23T03:49:15.666Z,11.99
2019-05-23T03:52:21.187Z,12.11
2019-05-23T03:55:24.990Z,11.98
2019-05-23T03:58:29.465Z,12.10
2019-05-23T04:01:46.870Z,12.06
2019-05-23T04:04:40.000Z,12.18
2019-05-23T04:07:44.112Z,12.22
2019-05-23T04:10:51.372Z,12.13
2019-05-23T04:13:52.619Z,12.25
2019-05-23T04:16:56.344Z,12.28
2019-05-23T04:19:59.878Z,12.28
2019-05-23T04:23:03.527Z,12.35
2019-05-23T04:26:06.778Z,12.15
2019-05-23T04:29:10.728Z,12.05
2019-05-23T04:32:15.796Z,12.15
2019-05-23T04:35:19.441Z,11.96
2019-05-23T04:38:22.832Z,12.07
2019-05-23T04:41:25.905Z,12.18
2019-05-23T04:44:29.900Z,12.26
2019-05-23T04:47:33.814Z,12.19
2019-05-23T04:50:37.216Z,12.26
2019-05-23T04:53:40.582Z,12.23
2019-05-23T04:56:43.507Z,12.32
2019-05-23T04:59:47.484Z,12.45
2019-05-23T05:02:51.399Z,12.47
2019-05-23T05:05:56.218Z,12.49
2019-05-23T05:08:59.729Z,12.51
2019-05-23T05:12:03.055Z,12.54
2019-05-23T05:15:06.500Z,12.49
2019-05-23T05:18:11.159Z,12.65
2019-05-23T05:21:14.740Z,12.70
2019-05-23T05:24:18.290Z,12.66
2019-05-23T05:27:22.116Z,12.79
2019-05-23T05:30:26.379Z,12.73
2019-05-23T05:33:29.591Z,12.77
2019-05-23T05:36:33.069Z,12.75
2019-05-23T05:39:36.893Z,12.78
2019-05-23T05:42:43.162Z,12.80
2019-05-23T05:45:46.856Z,12.87
2019-05-23T05:48:49.823Z,12.92
2019-05-23T05:51:53.332Z,12.95
2019-05-23T05:54:56.830Z,13.00
2019-05-23T05:58:00.390Z,13.03
2019-05-23T06:01:08.158Z,12.96
2019-05-23T06:04:11.539Z,13.09
2019-05-23T06:07:24.193Z,13.10
2019-05-23T06:10:28.228Z,13.16
2019-05-23T06:13:31.757Z,13.15
2019-05-23T06:16:35.303Z,13.13
2019-05-23T06:19:38.804Z,13.19
2019-05-23T06:22:43.438Z,13.24
2019-05-23T06:25:46.696Z,13.30
2019-05-23T06:28:50.405Z,13.35
2019-05-23T06:31:55.624Z,13.36
2019-05-23T06:34:59.184Z,13.42
2019-05-23T06:38:02.613Z,13.47
2019-05-23T06:41:07.229Z,13.50
2019-05-23T06:44:12.377Z,13.58
2019-05-23T06:47:15.752Z,13.62
2019-05-23T06:50:21.061Z,13.67
2019-05-23T06:53:24.833Z,13.77
2019-05-23T06:56:28.959Z,13.92
2019-05-23T06:59:33.072Z,14.06
2019-05-23T07:02:36.850Z,14.18
2019-05-23T07:05:40.900Z,14.29
2019-05-23T07:08:44.328Z,14.32
2019-05-23T07:11:47.950Z,14.56
2019-05-23T07:14:50.895Z,14.64
2019-05-23T07:17:54.815Z,14.79
2019-05-23T07:20:58.018Z,14.91
2019-05-23T07:24:01.141Z,15.05
2019-05-23T07:27:04.174Z,15.02
2019-05-23T07:30:14.157Z,15.28
2019-05-23T07:33:17.660Z,15.39
2019-05-23T07:36:21.242Z,15.39
2019-05-23T07:39:24.205Z,15.56
2019-05-23T07:42:27.598Z,15.67
2019-05-23T07:45:39.852Z,15.78
2019-05-23T07:48:42.827Z,15.74
2019-05-23T07:51:46.264Z,15.89
2019-05-23T07:55:00.812Z,16.01
2019-05-23T07:58:05.617Z,16.23
2019-05-23T08:01:10.444Z,16.28
2019-05-23T08:04:21.424Z,16.34
2019-05-23T08:07:20.522Z,16.39
2019-05-23T08:10:32.973Z,16.67
2019-05-23T08:13:29.784Z,16.58
2019-05-23T08:16:33.552Z,16.61
2019-05-23T08:19:49.122Z,16.66
2019-05-23T08:22:42.081Z,16.75
2019-05-23T08:25:45.704Z,16.76
2019-05-23T08:29:21.742Z,16.76
2019-05-23T08:31:54.436Z,16.78
2019-05-23T08:34:57.939Z,17.10
2019-05-23T08:38:01.157Z,17.08
2019-05-23T08:41:05.544Z,17.22
2019-05-23T08:44:11.580Z,17.31
2019-05-23T08:47:16.787Z,17.45
2019-05-23T08:50:21.129Z,17.51
2019-05-23T08:53:25.827Z,17.72
2019-05-23T08:56:28.827Z,17.72
2019-05-23T08:59:32.525Z,17.80
2019-05-23T09:02:36.702Z,17.84
2019-05-23T09:05:41.840Z,18.21
2019-05-23T09:08:46.038Z,18.21
2019-05-23T09:11:50.143Z,18.19
2019-05-23T09:14:53.565Z,18.15
2019-05-23T09:17:57.086Z,18.34
2019-05-23T09:21:00.750Z,18.17
2019-05-23T09:24:04.174Z,18.50
2019-05-23T09:27:07.614Z,18.73
2019-05-23T09:30:12.951Z,18.58
2019-05-23T09:33:16.166Z,18.87
2019-05-23T09:36:19.408Z,19.00
2019-05-23T09:39:25.519Z,19.02
2019-05-23T09:42:28.657Z,19.23
2019-05-23T09:45:32.120Z,19.26
2019-05-23T09:48:36.003Z,19.39
2019-05-23T09:51:39.024Z,19.33
2019-05-23T09:54:41.946Z,19.45
2019-05-23T09:57:45.562Z,19.52
2019-05-23T10:00:48.787Z,19.52
2019-05-23T10:03:52.116Z,19.41
2019-05-23T10:06:55.012Z,19.58
2019-05-23T10:09:57.936Z,19.81
2019-05-23T10:13:00.855Z,19.54
2019-05-23T10:16:07.555Z,19.55
2019-05-23T10:19:10.725Z,19.43
2019-05-23T10:22:13.908Z,19.34
2019-05-23T10:25:17.105Z,19.76
2019-05-23T10:28:20.238Z,19.49
2019-05-23T10:31:23.791Z,19.16
2019-05-23T10:34:26.846Z,19.30
2019-05-23T10:37:29.848Z,19.44
2019-05-23T10:40:33.182Z,19.52
2019-05-23T10:43:36.410Z,19.05
2019-05-23T10:46:40.141Z,19.28
2019-05-23T10:49:44.952Z,19.07
2019-05-23T10:52:48.302Z,19.59
2019-05-23T10:55:51.255Z,19.12
2019-05-23T10:58:54.661Z,19.25
2019-05-23T11:01:59.395Z,19.53
2019-05-23T11:05:12.189Z,19.33
2019-05-23T11:08:09.276Z,19.81
2019-05-23T11:11:14.659Z,19.78
2019-05-23T11:14:18.308Z,20.55
2019-05-23T11:17:22.516Z,20.19
2019-05-23T11:20:26.770Z,20.45
2019-05-23T11:23:37.461Z,21.07
2019-05-23T11:26:40.954Z,20.83
2019-05-23T11:29:44.211Z,20.84
2019-05-23T11:32:48.861Z,21.44
2019-05-23T11:35:52.066Z,21.28
2019-05-23T11:38:55.419Z,21.25
2019-05-23T11:41:58.859Z,20.89
2019-05-23T11:45:02.115Z,21.48
2019-05-23T11:48:05.329Z,21.87
2019-05-23T11:51:10.219Z,21.36
2019-05-23T11:54:13.948Z,21.11
2019-05-23T11:57:17.089Z,21.63
2019-05-23T12:01:30.577Z,21.43
2019-05-23T12:04:42.090Z,21.62
2019-05-23T12:07:45.704Z,22.10
2019-05-23T12:10:48.978Z,21.94
2019-05-23T12:13:52.351Z,21.86
2019-05-23T12:16:57.101Z,21.40
2019-05-23T12:20:00.354Z,21.72
2019-05-23T12:23:10.477Z,21.66
2019-05-23T12:26:08.527Z,22.34
2019-05-23T12:29:11.834Z,22.16
2019-05-23T12:32:15.273Z,22.22
2019-05-23T12:35:18.316Z,21.73
2019-05-23T12:38:21.374Z,21.75
2019-05-23T12:41:24.617Z,21.97
2019-05-23T12:44:27.717Z,22.59
2019-05-23T12:47:51.613Z,22.51
2019-05-23T12:50:55.780Z,22.70
2019-05-23T12:53:58.764Z,22.80
2019-05-23T12:57:01.895Z,21.75
2019-05-23T13:00:07.390Z,22.26
2019-05-23T13:03:12.123Z,22.41
2019-05-23T13:06:15.604Z,22.67
2019-05-23T13:09:18.525Z,22.64
2019-05-23T13:12:21.968Z,22.40
2019-05-23T13:15:25.444Z,22.54
2019-05-23T13:18:28.491Z,21.84
2019-05-23T13:21:31.504Z,22.25
2019-05-23T13:24:51.442Z,22.25
2019-05-23T13:27:40.141Z,22.40
2019-05-23T13:30:43.574Z,22.39
2019-05-23T13:33:46.900Z,22.21
2019-05-23T13:36:50.552Z,22.21
2019-05-23T13:39:53.501Z,22.52
2019-05-23T13:42:56.732Z,22.69
2019-05-23T13:46:01.576Z,22.94
2019-05-23T13:49:05.672Z,22.73
2019-05-23T13:52:09.247Z,23.01
2019-05-23T13:55:12.608Z,22.75
2019-05-23T13:58:17.026Z,23.20
2019-05-23T14:01:20.660Z,23.38
2019-05-23T14:04:23.571Z,23.35
2019-05-23T14:07:27.296Z,23.13
2019-05-23T14:10:30.429Z,22.93
2019-05-23T14:13:34.845Z,22.45
2019-05-23T14:17:09.657Z,22.61
2019-05-23T14:20:13.910Z,22.98
2019-05-23T14:23:28.312Z,23.21
2019-05-23T14:26:36.910Z,22.84
2019-05-23T14:29:40.643Z,23.46
2019-05-23T14:32:49.609Z,22.88
2019-05-23T14:35:53.805Z,23.02
2019-05-23T14:38:59.446Z,23.37
2019-05-23T14:42:08.561Z,23.02
2019-05-23T14:45:29.426Z,22.75
2019-05-23T14:49:01.635Z,22.54
2019-05-23T14:52:22.079Z,22.56
2019-05-23T14:55:25.292Z,22.96
2019-05-23T14:58:29.400Z,23.41
2019-05-23T15:01:33.857Z,23.06
2019-05-23T15:04:37.169Z,22.78
2019-05-23T15:07:40.475Z,22.63
2019-05-23T15:10:43.973Z,23.15
2019-05-23T15:13:46.979Z,22.89
2019-05-23T15:16:49.912Z,23.16
2019-05-23T15:19:53.788Z,23.14
2019-05-23T15:22:59.973Z,22.57
2019-05-23T15:26:19.656Z,22.05
2019-05-23T15:29:08.283Z,21.99
2019-05-23T15:32:11.312Z,22.50
2019-05-23T15:35:14.706Z,22.77
2019-05-23T15:38:17.725Z,23.00
2019-05-23T15:41:20.782Z,23.19
2019-05-23T15:44:28.455Z,23.01
2019-05-23T15:47:32.392Z,23.13
2019-05-23T15:50:43.927Z,23.12
2019-05-23T15:54:21.623Z,22.79
2019-05-23T15:57:39.772Z,22.48
2019-05-23T16:01:02.540Z,22.44
2019-05-23T16:04:11.953Z,22.00
2019-05-23T16:07:15.362Z,21.73
2019-05-23T16:10:19.417Z,21.71
2019-05-23T16:13:22.740Z,21.56
2019-05-23T16:16:26.870Z,21.53
2019-05-23T16:19:29.796Z,21.48
2019-05-23T16:22:33.684Z,21.33
2019-05-23T16:25:37.033Z,21.40
2019-05-23T16:28:40.356Z,21.43
2019-05-23T16:31:43.964Z,21.42
2019-05-23T16:34:47.000Z,21.41
2019-05-23T16:37:50.189Z,21.40
2019-05-23T16:40:53.118Z,21.48
2019-05-23T16:43:56.161Z,21.52
2019-05-23T16:46:59.061Z,21.36
2019-05-23T16:50:02.021Z,21.06
2019-05-23T16:53:05.941Z,21.14
2019-05-23T16:56:14.590Z,21.16
2019-05-23T16:59:24.221Z,21.18
2019-05-23T17:02:55.922Z,21.19
2019-05-23T17:06:07.045Z,21.24
2019-05-23T17:09:26.439Z,21.31
2019-05-23T17:12:49.577Z,21.48
2019-05-23T17:16:12.127Z,21.39
2019-05-23T17:19:28.857Z,21.50
2019-05-23T17:22:50.537Z,21.38
2019-05-23T17:26:08.844Z,21.18
2019-05-23T17:29:36.987Z,21.26
2019-05-23T17:32:41.482Z,21.04
2019-05-23T17:35:44.524Z,21.08
2019-05-23T17:38:48.000Z,21.32
2019-05-23T17:41:52.084Z,21.09
2019-05-23T17:44:55.344Z,20.99
2019-05-23T17:48:00.093Z,21.05
2019-05-23T17:51:03.828Z,21.04
2019-05-23T17:54:07.161Z,21.30
2019-05-23T17:57:10.956Z,21.26
2019-05-23T18:00:17.174Z,21.17
2019-05-23T18:03:20.508Z,21.20
2019-05-23T18:06:24.079Z,21.38
2019-05-23T18:09:27.697Z,21.30
2019-05-23T18:12:31.556Z,21.48
2019-05-23T18:15:34.754Z,21.15
2019-05-23T18:18:38.526Z,20.93
2019-05-23T18:21:42.907Z,20.81
2019-05-23T18:24:46.958Z,20.75
2019-05-23T18:27:50.252Z,20.63
2019-05-23T18:30:59.129Z,20.62
2019-05-23T18:34:04.599Z,20.64
2019-05-23T18:37:08.933Z,20.53
2019-05-23T18:40:12.451Z,20.34
2019-05-23T18:43:16.441Z,20.34
2019-05-23T18:46:24.084Z,20.13
2019-05-23T18:49:27.793Z,19.91
2019-05-23T18:52:31.165Z,20.00
2019-05-23T18:55:34.944Z,19.92
2019-05-23T18:58:38.404Z,19.90
2019-05-23T19:01:42.220Z,19.78
2019-05-23T19:04:45.663Z,19.72
2019-05-23T19:07:48.703Z,19.62
2019-05-23T19:10:52.643Z,19.52
2019-05-23T19:13:55.979Z,19.48
2019-05-23T19:16:59.462Z,19.36
2019-05-23T19:20:02.715Z,18.88
2019-05-23T19:23:06.978Z,19.00
2019-05-23T19:26:11.179Z,18.75
2019-05-23T19:29:14.258Z,18.87
2019-05-23T19:32:17.892Z,18.88
2019-05-23T19:35:21.449Z,18.77
2019-05-23T19:38:25.465Z,18.59
2019-05-23T19:41:37.686Z,18.55
2019-05-23T19:44:35.245Z,18.64
2019-05-23T19:47:38.769Z,18.46
2019-05-23T19:50:43.316Z,18.40
2019-05-23T19:53:47.748Z,18.45
2019-05-23T19:56:51.058Z,18.24
2019-05-23T19:59:54.167Z,18.32
2019-05-23T20:02:59.171Z,18.20
2019-05-23T20:06:02.621Z,18.14
2019-05-23T20:09:10.028Z,17.96
2019-05-23T20:12:14.301Z,17.99
2019-05-23T20:15:18.544Z,17.97
2019-05-23T20:18:22.160Z,17.61
2019-05-23T20:21:25.563Z,17.69
2019-05-23T20:24:28.837Z,17.49
2019-05-23T20:27:31.866Z,17.50
2019-05-23T20:31:00.600Z,17.54
2019-05-23T20:34:06.969Z,17.60
2019-05-23T20:37:09.492Z,17.52
2019-05-23T20:40:13.118Z,17.39
2019-05-23T20:43:16.222Z,17.47
2019-05-23T20:46:19.255Z,17.38
2019-05-23T20:49:22.881Z,17.32
2019-05-23T20:52:26.183Z,17.23
2019-05-23T20:55:29.987Z,17.28
2019-05-23T20:58:32.915Z,17.15
2019-05-23T21:01:40.020Z,17.08
2019-05-23T21:04:43.385Z,17.15
2019-05-23T21:07:46.613Z,17.20
2019-05-23T21:10:50.921Z,17.22
2019-05-23T21:13:54.227Z,17.22
2019-05-23T21:16:57.749Z,17.03
2019-05-23T21:20:00.668Z,16.93
2019-05-23T21:23:03.722Z,17.07
2019-05-23T21:26:07.771Z,16.88
2019-05-23T21:29:11.289Z,16.57
2019-05-23T21:32:14.901Z,16.92
2019-05-23T21:35:18.441Z,16.56
2019-05-23T21:38:22.460Z,16.82
2019-05-23T21:41:26.472Z,16.86
2019-05-23T21:44:29.803Z,16.86
2019-05-23T21:47:33.097Z,16.72
2019-05-23T21:50:36.383Z,16.79
2019-05-23T21:53:39.970Z,16.71
2019-05-23T21:56:43.676Z,16.74
2019-05-23T21:59:46.796Z,16.70
2019-05-23T22:02:50.237Z,16.52
2019-05-23T22:05:53.194Z,16.61
2019-05-23T22:08:56.121Z,16.49
2019-05-23T22:12:00.377Z,16.50
2019-05-23T22:15:04.279Z,16.47
2019-05-23T22:18:07.802Z,16.57
2019-05-23T22:21:11.486Z,16.61
2019-05-23T22:24:15.146Z,16.53
2019-05-23T22:27:19.266Z,16.55
2019-05-23T22:30:22.294Z,16.59
2019-05-23T22:33:27.872Z,16.37
2019-05-23T22:36:30.780Z,16.40
2019-05-23T22:39:34.315Z,16.48
2019-05-23T22:42:37.658Z,16.50
2019-05-23T22:45:41.129Z,16.41
2019-05-23T22:48:44.407Z,16.32
2019-05-23T22:51:48.540Z,16.35
2019-05-23T22:54:51.525Z,16.37
2019-05-23T22:57:54.811Z,16.24
2019-05-23T23:00:58.593Z,16.32
2019-05-23T23:04:02.761Z,16.35
2019-05-23T23:07:06.649Z,16.31
2019-05-23T23:10:09.788Z,16.19
2019-05-23T23:13:13.627Z,16.23
2019-05-23T23:16:17.118Z,16.18
2019-05-23T23:19:20.944Z,16.19
2019-05-23T23:22:24.017Z,16.06
2019-05-23T23:25:27.057Z,16.09
2019-05-23T23:28:30.065Z,16.29
2019-05-23T23:31:33.784Z,16.26
2019-05-23T23:34:37.705Z,16.17
2019-05-23T23:37:40.714Z,16.08
2019-05-23T23:40:44.265Z,16.11
2019-05-23T23:43:58.666Z,16.09
2019-05-23T23:47:10.965Z,15.74
2019-05-23T23:50:32.432Z,15.99
2019-05-23T23:53:54.199Z,15.72
2019-05-23T23:57:16.116Z,15.92
